Time;durP1;ratioP1;P1;durP2;ratioP2;P2;SDS_P1;SDS_P2;PMS_P1;PMS_P2;Temp;Humidity;BMP_temperature;BMP_pressure;BME280_temperature;BME280_humidity;BME280_pressure;Samples;Min_cycle;Max_cycle;Signal;HPM_P1;HPM_P2
2023/01/29 00:01:19;;;;;;;38.13;22.42;;;;;;;-0.92;64.99;101677.31;5049510;28;20063;-64
2023/01/29 00:03:50;;;;;;;35.33;22.42;;;;;;;-0.96;65.75;101669.75;5051650;28;20056;-63
2023/01/29 00:06:18;;;;;;;33.30;21.13;;;;;;;-0.96;66.03;101670.56;5051027;28;20386;-63
2023/01/29 00:08:45;;;;;;;33.97;20.60;;;;;;;-0.97;65.22;101663.41;5050593;28;20064;-64
2023/01/29 00:11:13;;;;;;;33.67;21.30;;;;;;;-1.06;65.68;101665.50;5049985;28;20053;-64
2023/01/29 00:13:40;;;;;;;36.00;21.65;;;;;;;-1.08;65.77;101659.41;5052182;28;20473;-64
2023/01/29 00:16:08;;;;;;;36.80;23.13;;;;;;;-1.10;66.51;101645.09;5052913;28;20052;-64
2023/01/29 00:18:38;;;;;;;39.00;23.90;;;;;;;-1.11;65.74;101653.53;5052219;28;20048;-64
2023/01/29 00:21:10;;;;;;;33.03;20.67;;;;;;;-1.13;66.51;101653.72;5051092;28;20076;-64
2023/01/29 00:23:38;;;;;;;36.53;22.27;;;;;;;-1.18;65.83;101649.91;5050026;28;20044;-64
2023/01/29 00:26:05;;;;;;;31.75;19.67;;;;;;;-1.21;66.29;101642.97;5051124;28;20045;-64
2023/01/29 00:28:33;;;;;;;37.72;23.05;;;;;;;-1.21;66.01;101639.41;5052178;28;20057;-64
2023/01/29 00:31:07;;;;;;;35.47;21.55;;;;;;;-1.21;66.49;101633.94;5050766;28;20508;-63
2023/01/29 00:33:34;;;;;;;36.70;20.27;;;;;;;-1.31;65.57;101634.34;5052091;28;20057;-61
2023/01/29 00:36:03;;;;;;;32.53;19.38;;;;;;;-1.37;65.79;101641.47;5051154;28;20060;-63
2023/01/29 00:38:32;;;;;;;37.33;21.88;;;;;;;-1.31;66.16;101640.63;5049668;28;20056;-63
2023/01/29 00:46:35;;;;;;;34.17;20.42;;;;;;;-1.24;65.76;101635.19;5057675;28;20053;-63
2023/01/29 00:49:02;;;;;;;41.83;24.05;;;;;;;-1.30;66.04;101634.13;5052397;28;20056;-64
2023/01/29 00:51:30;;;;;;;39.03;22.02;;;;;;;-1.36;66.60;101648.63;5054660;28;20060;-64
2023/01/29 00:53:58;;;;;;;36.53;21.80;;;;;;;-1.35;66.27;101633.91;5054693;28;20072;-64
2023/01/29 00:56:26;;;;;;;36.17;22.08;;;;;;;-1.33;65.73;101637.25;5054961;28;20065;-63
2023/01/29 00:58:53;;;;;;;34.05;20.98;;;;;;;-1.29;65.86;101640.44;5055926;28;20053;-64
2023/01/29 01:03:04;;;;;;;30.90;18.77;;;;;;;-1.28;65.80;101642.09;5054439;28;20060;-64
2023/01/29 01:04:10;;;;;;;34.72;20.30;;;;;;;-1.29;65.80;101644.00;5055392;28;20068;-64
2023/01/29 01:06:38;;;;;;;34.42;20.27;;;;;;;-1.34;65.86;101641.06;5054820;28;20049;-64
2023/01/29 01:11:51;;;;;;;34.42;21.00;;;;;;;-1.37;65.81;101646.94;5059145;28;20060;-63
2023/01/29 01:14:20;;;;;;;38.78;23.48;;;;;;;-1.44;66.30;101651.53;5055318;28;20052;-64
2023/01/29 01:16:49;;;;;;;35.90;21.45;;;;;;;-1.46;65.61;101653.63;5051081;28;20401;-64
2023/01/29 01:19:16;;;;;;;35.25;21.35;;;;;;;-1.43;65.88;101647.75;5055602;28;20057;-64
2023/01/29 01:21:46;;;;;;;38.03;22.55;;;;;;;-1.57;66.14;101659.72;5053567;28;20045;-64
2023/01/29 01:24:15;;;;;;;34.13;20.67;;;;;;;-1.51;65.72;101664.31;5054908;28;20076;-64
2023/01/29 01:26:42;;;;;;;37.08;22.23;;;;;;;-1.47;66.33;101652.81;5054066;28;20068;-64
2023/01/29 01:29:10;;;;;;;37.67;21.95;;;;;;;-1.45;65.60;101653.44;5035482;28;20069;-64
2023/01/29 01:31:37;;;;;;;32.80;20.33;;;;;;;-1.44;65.47;101657.84;5034866;28;20060;-64
2023/01/29 01:34:05;;;;;;;36.70;21.38;;;;;;;-1.45;65.29;101645.25;5050711;28;20063;-64
2023/01/29 01:36:32;;;;;;;33.08;20.77;;;;;;;-1.46;65.19;101638.06;5043599;28;20054;-63
2023/01/29 01:39:02;;;;;;;37.17;22.25;;;;;;;-1.47;65.78;101633.69;5050284;28;20057;-64
2023/01/29 01:41:31;;;;;;;;;;;;;;;-1.50;66.09;101627.78;5054143;28;20497;-62
2023/01/29 01:43:59;;;;;;;34.08;20.60;;;;;;;-1.55;66.05;101616.63;5054555;28;19920;-64
2023/01/29 01:46:29;;;;;;;37.28;21.10;;;;;;;-1.62;65.57;101608.41;5053059;28;20057;-63
2023/01/29 01:49:02;;;;;;;35.97;20.55;;;;;;;-1.65;66.36;101604.19;5054336;28;20068;-64
2023/01/29 01:51:37;;;;;;;38.42;21.15;;;;;;;-1.65;66.28;101598.72;5046462;28;20072;-63
2023/01/29 01:54:09;;;;;;;33.13;20.52;;;;;;;-1.69;65.84;101613.00;5034873;28;20481;-64
2023/01/29 01:56:45;;;;;;;36.15;22.35;;;;;;;-1.76;65.84;101610.25;5049741;28;20045;-64
2023/01/29 01:59:17;;;;;;;37.55;21.80;;;;;;;-1.73;66.96;101609.00;5054904;28;20409;-64
2023/01/29 02:01:49;;;;;;;36.92;21.40;;;;;;;-1.75;67.11;101606.47;5050465;28;20498;-64
2023/01/29 02:09:54;;;;;;;43.33;23.90;;;;;;;-1.76;67.01;101626.66;5056984;28;20057;-63
2023/01/29 02:12:23;;;;;;;41.30;23.40;;;;;;;-1.72;66.53;101621.59;5054095;28;20049;-64
2023/01/29 02:14:52;;;;;;;36.20;20.45;;;;;;;-1.75;66.96;101617.38;5053259;28;20064;-63
2023/01/29 02:17:20;;;;;;;39.60;21.85;;;;;;;-1.74;66.35;101615.50;5052726;28;20505;-64
2023/01/29 02:19:57;;;;;;;37.50;22.15;;;;;;;-1.76;65.90;101621.19;5054060;28;20060;-64
2023/01/29 02:22:40;;;;;;;39.95;22.75;;;;;;;-1.75;66.85;101624.75;5041095;28;20050;-63
2023/01/29 02:25:25;;;;;;;40.50;22.67;;;;;;;-1.75;66.17;101624.75;5036316;28;20084;-64
2023/01/29 02:28:33;;;;;;;35.63;20.80;;;;;;;-1.73;66.40;101625.38;5054088;28;20061;-63
2023/01/29 02:31:09;;;;;;;39.15;21.98;;;;;;;-1.68;66.54;101628.34;4991420;28;20061;-63
2023/01/29 02:33:46;;;;;;;36.45;21.48;;;;;;;-1.65;65.48;101627.94;5045600;28;20056;-64
2023/01/29 02:36:22;;;;;;;36.97;21.48;;;;;;;-1.67;65.96;101638.22;5052930;28;20048;-63
2023/01/29 02:38:57;;;;;;;36.88;21.00;;;;;;;-1.68;66.30;101642.84;5053701;28;20049;-63
2023/01/29 02:41:31;;;;;;;33.65;19.48;;;;;;;-1.66;66.08;101645.34;5052494;28;20048;-64
2023/01/29 02:44:06;;;;;;;34.80;20.90;;;;;;;-1.66;65.04;101643.50;5052827;28;20056;-62
2023/01/29 02:46:39;;;;;;;38.88;20.45;;;;;;;-1.75;65.55;101631.03;5052526;28;20482;-63
2023/01/29 02:49:17;;;;;;;35.70;21.17;;;;;;;-1.81;64.99;101637.31;5053805;28;20053;-64
2023/01/29 02:51:49;;;;;;;40.40;23.15;;;;;;;-1.94;66.25;101645.47;5043494;28;20398;-64
2023/01/29 02:54:25;;;;;;;36.65;21.40;;;;;;;-2.00;66.23;101640.81;5041345;28;20060;-64
2023/01/29 02:56:57;;;;;;;38.58;21.58;;;;;;;-1.94;66.61;101648.19;5052568;28;20060;-64
2023/01/29 02:59:33;;;;;;;41.20;22.65;;;;;;;-1.93;66.23;101641.66;5053632;28;20053;-64
2023/01/29 03:02:08;;;;;;;37.35;21.45;;;;;;;-1.90;66.53;101644.00;5052452;28;20049;-64
2023/01/29 03:04:42;;;;;;;35.83;21.38;;;;;;;-1.86;66.79;101642.56;5053217;28;20045;-64
2023/01/29 03:07:41;;;;;;;37.42;21.33;;;;;;;-1.86;65.79;101653.47;5048595;28;20049;-63
2023/01/29 03:10:04;;;;;;;40.88;21.98;;;;;;;-1.98;66.09;101649.63;5033283;28;20414;-64
2023/01/29 03:12:35;;;;;;;39.67;22.58;;;;;;;-1.85;66.31;101644.22;5052933;28;20049;-64
2023/01/29 03:15:12;;;;;;;39.05;21.42;;;;;;;-1.77;65.82;101649.53;5053391;28;20052;-63
2023/01/29 03:17:44;;;;;;;37.58;21.13;;;;;;;-1.73;66.66;101653.53;5052945;28;20057;-65
2023/01/29 03:20:16;;;;;;;35.90;19.88;;;;;;;-1.65;66.42;101645.16;5053378;28;20057;-63
2023/01/29 03:22:49;;;;;;;37.30;20.45;;;;;;;-1.53;67.28;101639.13;5034614;28;20076;-63
2023/01/29 03:33:45;;;;;;;39.95;21.95;;;;;;;-1.31;66.21;101623.41;5058467;28;20053;-63
2023/01/29 03:36:18;;;;;;;40.00;22.92;;;;;;;-1.32;66.31;101625.31;5051184;28;20505;-64
2023/01/29 03:38:46;;;;;;;37.22;21.15;;;;;;;-1.29;66.20;101627.59;5051998;28;20060;-64
2023/01/29 03:41:23;;;;;;;40.67;21.48;;;;;;;-1.29;66.22;101641.28;5051839;28;20056;-63
2023/01/29 03:43:57;;;;;;;38.70;22.35;;;;;;;-1.25;65.58;101645.28;5052328;28;20053;-64
2023/01/29 03:46:32;;;;;;;38.53;21.35;;;;;;;-1.24;65.89;101641.50;5051246;28;20045;-64
2023/01/29 03:49:07;;;;;;;43.83;24.67;;;;;;;-1.14;66.29;101629.31;5052267;28;20473;-64
2023/01/29 03:51:39;;;;;;;43.92;23.67;;;;;;;-1.01;66.45;101634.78;5049958;28;20049;-64
2023/01/29 03:54:15;;;;;;;38.70;22.00;;;;;;;-0.94;65.72;101629.34;5052128;28;20060;-64
2023/01/29 03:56:57;;;;;;;38.33;22.42;;;;;;;-0.89;66.14;101627.66;5050908;28;20044;-64
2023/01/29 03:59:43;;;;;;;40.15;22.45;;;;;;;-0.84;65.44;101621.53;5050058;28;20375;-63
2023/01/29 04:02:18;;;;;;;40.22;22.13;;;;;;;-0.78;65.70;101617.13;5040548;28;20414;-64
2023/01/29 04:04:50;;;;;;;38.28;22.17;;;;;;;-0.74;65.63;101608.28;5042675;28;20053;-63
2023/01/29 04:07:23;;;;;;;38.00;22.17;;;;;;;-0.74;65.94;101604.72;5050730;28;20056;-64
2023/01/29 04:09:54;;;;;;;39.17;21.25;;;;;;;-0.69;65.05;101603.03;5052018;28;20060;-63
2023/01/29 04:12:28;;;;;;;40.90;23.95;;;;;;;-0.71;65.91;101607.88;5050011;28;20049;-64
2023/01/29 04:14:58;;;;;;;46.67;24.67;;;;;;;-0.71;65.57;101601.59;5051874;28;20453;-63
2023/01/29 04:17:31;;;;;;;39.58;23.13;;;;;;;-0.71;65.49;101593.38;5051201;28;20049;-63
2023/01/29 04:20:02;;;;;;;40.08;22.25;;;;;;;-0.71;65.16;101587.91;5044530;28;20053;-64
2023/01/29 04:22:33;;;;;;;40.97;23.52;;;;;;;-0.58;65.39;101590.59;5049934;28;20048;-64
2023/01/29 04:25:07;;;;;;;38.75;22.08;;;;;;;-0.54;64.83;101585.56;5054630;28;20056;-63
2023/01/29 04:27:43;;;;;;;43.95;24.63;;;;;;;-0.56;64.49;101587.66;5054891;28;20061;-64
2023/01/29 04:30:22;;;;;;;42.95;24.00;;;;;;;-0.62;64.56;101583.88;5056447;28;20509;-64
2023/01/29 04:33:02;;;;;;;44.90;26.33;;;;;;;-0.71;65.13;101577.78;5055884;28;20053;-64
2023/01/29 04:35:32;;;;;;;;;;;;;;;-0.66;65.38;101577.97;5055479;28;20061;-64
2023/01/29 04:38:11;;;;;;;43.17;22.63;;;;;;;-0.69;65.16;101577.59;5053123;28;19928;-65
2023/01/29 04:40:50;;;;;;;41.67;24.05;;;;;;;-0.84;64.98;101575.91;5056651;28;20068;-63
2023/01/29 04:43:25;;;;;;;43.55;24.67;;;;;;;-0.81;65.63;101580.13;5055320;28;20060;-64
2023/01/29 04:46:07;;;;;;;45.60;25.35;;;;;;;-0.76;65.60;101572.09;5056284;28;20383;-64
2023/01/29 04:48:50;;;;;;;40.28;22.67;;;;;;;-0.72;65.09;101562.41;5055187;28;20061;-63
2023/01/29 04:51:25;;;;;;;41.28;23.80;;;;;;;-0.69;65.44;101561.16;5041509;28;20091;-64
2023/01/29 04:54:01;;;;;;;42.95;24.77;;;;;;;-0.71;65.60;101568.75;5035667;28;20060;-64
2023/01/29 04:56:35;;;;;;;45.22;24.75;;;;;;;-0.76;65.50;101557.59;5035919;28;20053;-64
2023/01/29 04:59:07;;;;;;;44.83;24.70;;;;;;;-0.62;65.13;101560.09;5055596;28;20060;-64
2023/01/29 05:01:37;;;;;;;39.40;22.85;;;;;;;-0.59;65.45;101561.53;5055671;28;20496;-63
2023/01/29 05:04:14;;;;;;;41.95;24.42;;;;;;;-0.50;65.56;101556.72;5053454;28;20053;-62
2023/01/29 05:06:42;;;;;;;49.95;26.70;;;;;;;-0.38;65.39;101557.72;5049301;28;20060;-64
2023/01/29 05:09:09;;;;;;;41.47;25.25;;;;;;;-0.27;65.17;101548.03;5055821;28;20045;-65
2023/01/29 05:11:37;;;;;;;45.75;25.95;;;;;;;-0.28;64.90;101552.63;5055776;28;20466;-64
2023/01/29 05:14:08;;;;;;;48.88;26.08;;;;;;;-0.17;65.15;101550.28;5054621;28;20083;-64
2023/01/29 05:16:42;;;;;;;46.53;25.75;;;;;;;-0.05;64.85;101530.22;5054525;28;20049;-63
2023/01/29 05:19:13;;;;;;;42.20;25.67;;;;;;;-0.07;64.76;101515.91;5037598;28;20076;-61
2023/01/29 05:21:43;;;;;;;41.20;24.52;;;;;;;0.06;64.74;101511.41;5035285;28;20410;-64
2023/01/29 05:24:16;;;;;;;41.92;23.63;;;;;;;0.15;64.67;101512.84;5035393;28;20049;-64
2023/01/29 05:29:29;;;;;;;40.50;24.55;;;;;;;0.22;64.66;101513.63;5059358;28;20055;-64
2023/01/29 05:31:59;;;;;;;47.85;26.75;;;;;;;0.34;64.47;101500.91;5054836;28;20053;-65
2023/01/29 05:34:27;;;;;;;47.80;26.90;;;;;;;0.45;64.31;101501.28;5053559;28;20056;-64
2023/01/29 05:36:55;;;;;;;43.80;25.60;;;;;;;0.49;64.34;101508.00;5053382;28;20053;-64
2023/01/29 05:39:22;;;;;;;44.83;27.30;;;;;;;0.54;63.99;101511.72;5055159;28;20053;-64
2023/01/29 05:41:49;;;;;;;45.80;27.40;;;;;;;0.61;64.12;101508.97;5054353;28;20060;-65
2023/01/29 05:44:17;;;;;;;48.08;27.85;;;;;;;0.65;63.82;101507.47;5053778;28;20072;-64
2023/01/29 05:46:44;;;;;;;45.22;26.60;;;;;;;0.68;63.76;101508.91;5053966;28;20095;-63
2023/01/29 05:49:12;;;;;;;45.92;26.58;;;;;;;0.77;63.54;101505.66;5052224;28;20061;-64
2023/01/29 05:51:42;;;;;;;47.80;29.23;;;;;;;0.85;63.05;101500.97;5044036;28;20051;-65
2023/01/29 05:54:11;;;;;;;45.97;27.63;;;;;;;0.83;62.74;101512.16;5034577;28;20053;-64
2023/01/29 05:56:38;;;;;;;49.53;27.02;;;;;;;0.90;62.24;101520.31;5034649;28;20405;-63
2023/01/29 05:59:08;;;;;;;46.78;27.25;;;;;;;0.85;62.64;101529.22;5053260;28;20413;-64
2023/01/29 06:01:35;;;;;;;43.78;26.63;;;;;;;0.86;62.35;101530.91;5054748;28;20440;-64
2023/01/29 06:04:02;;;;;;;48.13;28.70;;;;;;;0.93;62.45;101531.69;5053208;28;20053;-64
2023/01/29 06:06:29;;;;;;;46.00;26.90;;;;;;;0.97;62.13;101537.56;5054343;28;20052;-64
2023/01/29 06:08:58;;;;;;;47.03;26.92;;;;;;;1.04;62.09;101537.50;5053242;28;20049;-64
2023/01/29 06:11:26;;;;;;;47.85;28.42;;;;;;;1.08;62.42;101539.56;5054493;28;20057;-63
2023/01/29 06:13:53;;;;;;;47.15;28.23;;;;;;;1.03;61.86;101553.13;5053064;28;20057;-64
2023/01/29 06:16:23;;;;;;;48.88;29.00;;;;;;;1.10;61.87;101539.34;5054447;28;20049;-65
2023/01/29 06:18:51;;;;;;;46.35;28.38;;;;;;;1.11;62.36;101543.75;5051677;28;20462;-64
2023/01/29 06:21:18;;;;;;;49.00;28.60;;;;;;;1.08;61.85;101545.06;5053856;28;20056;-65
2023/01/29 06:23:45;;;;;;;48.15;29.15;;;;;;;1.10;61.86;101553.06;5053723;28;20064;-65
2023/01/29 06:26:15;;;;;;;49.38;29.48;;;;;;;0.95;61.40;101558.91;5054137;28;20061;-65
2023/01/29 06:28:44;;;;;;;49.33;29.45;;;;;;;1.06;61.96;101566.41;5052919;28;20056;-65
2023/01/29 06:31:11;;;;;;;44.90;26.80;;;;;;;1.14;62.10;101555.13;5053325;28;20068;-63
2023/01/29 06:33:39;;;;;;;48.58;28.08;;;;;;;1.09;61.56;101554.97;5042015;28;20048;-64
2023/01/29 06:36:09;;;;;;;50.67;30.33;;;;;;;1.18;62.09;101561.03;5050913;28;20056;-64
2023/01/29 06:38:36;;;;;;;49.03;27.83;;;;;;;1.26;62.30;101557.13;5053563;28;20053;-64
2023/01/29 06:41:09;;;;;;;45.28;27.60;;;;;;;1.26;62.80;101563.50;5048524;28;20057;-64
2023/01/29 06:43:38;;;;;;;49.25;27.75;;;;;;;1.35;63.01;101558.53;5046600;28;20049;-64
2023/01/29 06:46:07;;;;;;;46.95;28.08;;;;;;;1.47;62.07;101544.88;5053776;28;20469;-64
2023/01/29 06:48:34;;;;;;;47.20;28.30;;;;;;;1.41;62.69;101560.38;5051436;28;20041;-65
2023/01/29 06:51:03;;;;;;;48.92;28.38;;;;;;;1.44;61.35;101565.41;5045668;28;20065;-63
2023/01/29 06:53:31;;;;;;;47.30;26.88;;;;;;;1.47;61.32;101559.47;5047422;28;20066;-63
2023/01/29 06:55:58;;;;;;;52.58;29.38;;;;;;;1.42;62.25;101567.53;5050036;28;20064;-64
2023/01/29 06:58:43;;;;;;;51.35;30.05;;;;;;;1.42;61.83;101567.53;5044926;28;20045;-62
2023/01/29 07:01:12;;;;;;;47.67;28.30;;;;;;;1.50;61.35;101561.75;5043749;28;20082;-63
2023/01/29 07:03:41;;;;;;;47.20;27.05;;;;;;;1.39;60.82;101568.00;5051742;28;20045;-63
2023/01/29 07:06:09;;;;;;;48.92;27.98;;;;;;;1.40;61.03;101569.66;5053136;28;20049;-63
2023/01/29 07:08:37;;;;;;;45.95;25.85;;;;;;;1.45;61.22;101583.56;5053329;28;20064;-63
2023/01/29 07:11:05;;;;;;;49.60;28.23;;;;;;;1.49;60.89;101568.31;5051612;28;20056;-64
2023/01/29 07:13:33;;;;;;;43.53;27.00;;;;;;;1.47;60.03;101570.47;5050870;28;20056;-64
2023/01/29 07:16:03;;;;;;;44.15;26.30;;;;;;;1.45;61.04;101578.09;5049573;28;20485;-64
2023/01/29 07:18:31;;;;;;;47.08;28.63;;;;;;;1.39;60.79;101573.50;5042931;28;20045;-62
2023/01/29 07:21:01;;;;;;;45.28;27.20;;;;;;;1.19;61.54;101562.69;5049218;28;20049;-64
2023/01/29 07:23:28;;;;;;;49.33;27.15;;;;;;;1.27;62.26;101561.56;5052874;28;20056;-64
2023/01/29 07:25:56;;;;;;;44.47;27.20;;;;;;;1.43;62.02;101561.00;5051498;28;20080;-63
2023/01/29 07:28:26;;;;;;;48.47;26.60;;;;;;;1.35;61.79;101562.13;5048091;28;20045;-64
2023/01/29 07:30:56;;;;;;;46.15;28.08;;;;;;;1.42;61.88;101567.53;5050979;28;20105;-64
2023/01/29 07:33:25;;;;;;;51.63;28.60;;;;;;;1.54;61.78;101559.41;5048992;28;20049;-64
2023/01/29 07:35:52;;;;;;;47.28;26.80;;;;;;;1.63;61.97;101558.03;5050415;28;20056;-63
2023/01/29 07:38:20;;;;;;;45.63;28.35;;;;;;;1.62;61.04;101548.94;5050971;28;20072;-65
2023/01/29 07:40:47;;;;;;;45.75;26.80;;;;;;;1.46;61.57;101556.94;5049645;28;20053;-65
2023/01/29 07:43:15;;;;;;;47.83;28.23;;;;;;;1.67;61.42;101541.94;5049595;28;20049;-64
2023/01/29 07:45:46;;;;;;;46.33;26.83;;;;;;;1.71;61.33;101543.16;5050863;28;20473;-63
2023/01/29 07:48:13;;;;;;;45.47;26.52;;;;;;;1.72;60.50;101545.69;5051007;28;20060;-63
2023/01/29 07:50:42;;;;;;;45.60;27.95;;;;;;;1.71;61.10;101543.16;5047272;28;20060;-63
2023/01/29 07:53:13;;;;;;;43.55;25.85;;;;;;;1.76;61.25;101543.28;5050769;28;20445;-62
2023/01/29 07:55:41;;;;;;;48.33;27.90;;;;;;;1.70;60.64;101549.72;5048701;28;20056;-62
2023/01/29 07:58:09;;;;;;;44.97;27.27;;;;;;;1.84;61.12;101545.75;5050357;28;20053;-62
2023/01/29 08:00:36;;;;;;;42.22;24.95;;;;;;;1.81;61.00;101541.56;5046824;28;20044;-62
2023/01/29 08:03:04;;;;;;;45.63;27.80;;;;;;;1.91;60.74;101538.28;5043098;28;20052;-61
2023/01/29 08:05:32;;;;;;;45.88;26.63;;;;;;;1.88;60.01;101538.72;5051826;28;20052;-61
2023/01/29 08:08:00;;;;;;;46.55;27.08;;;;;;;2.00;60.82;101534.13;5048306;28;20049;-60
2023/01/29 08:10:28;;;;;;;48.70;29.08;;;;;;;1.76;61.29;101533.13;5046170;28;20052;-61
2023/01/29 08:12:56;;;;;;;46.83;27.55;;;;;;;1.97;60.31;101533.75;5041367;28;20053;-61
2023/01/29 08:15:24;;;;;;;44.58;26.52;;;;;;;2.12;60.56;101528.69;5048543;28;20048;-63
2023/01/29 08:17:52;;;;;;;46.88;27.08;;;;;;;2.15;59.75;101521.91;5047424;28;20045;-63
2023/01/29 08:20:21;;;;;;;48.13;28.70;;;;;;;2.06;60.83;101517.78;5043343;28;20052;-63
2023/01/29 08:22:48;;;;;;;48.45;28.15;;;;;;;2.18;59.67;101515.91;5044042;28;20064;-63
2023/01/29 08:25:17;;;;;;;44.33;26.55;;;;;;;2.20;59.54;101508.28;5050479;28;20056;-63
2023/01/29 08:27:44;;;;;;;46.80;26.40;;;;;;;2.28;60.29;101513.44;5048943;28;20386;-63
2023/01/29 08:30:12;;;;;;;48.65;27.50;;;;;;;2.36;59.95;101510.38;5049166;28;20053;-63
2023/01/29 08:32:40;;;;;;;45.67;27.60;;;;;;;2.44;59.21;101520.22;5040414;28;20049;-63
2023/01/29 08:35:08;;;;;;;43.15;26.05;;;;;;;2.46;59.94;101515.31;5039198;28;20106;-63
2023/01/29 08:37:35;;;;;;;45.97;27.38;;;;;;;2.57;59.42;101519.16;5050291;28;20071;-63
2023/01/29 08:40:02;;;;;;;44.90;26.10;;;;;;;2.60;59.03;101518.69;5049357;28;20048;-63
2023/01/29 08:42:33;;;;;;;43.60;25.30;;;;;;;2.62;59.43;101527.53;5048689;28;20409;-62
2023/01/29 08:45:01;;;;;;;43.40;25.15;;;;;;;2.54;58.08;101522.38;5042413;28;20508;-60
2023/01/29 08:47:28;;;;;;;42.80;26.23;;;;;;;2.50;59.59;101518.41;5046873;28;20057;-60
2023/01/29 08:49:55;;;;;;;43.90;26.08;;;;;;;2.59;59.65;101511.53;5049065;28;20045;-61
2023/01/29 08:52:22;;;;;;;42.95;25.90;;;;;;;2.58;58.52;101509.84;5049513;28;20049;-61
2023/01/29 08:54:50;;;;;;;46.00;28.55;;;;;;;2.46;59.00;101496.06;5048598;28;20063;-60
2023/01/29 08:57:17;;;;;;;44.25;27.38;;;;;;;2.53;58.90;101484.97;5049296;28;20056;-60
2023/01/29 08:59:46;;;;;;;43.08;25.50;;;;;;;2.64;58.86;101473.97;5047960;28;20045;-61
2023/01/29 09:02:13;;;;;;;43.58;27.23;;;;;;;2.64;58.97;101481.38;5043226;28;20049;-61
2023/01/29 09:04:40;;;;;;;41.83;26.13;;;;;;;2.77;58.24;101491.31;5035229;28;20049;-60
2023/01/29 09:07:07;;;;;;;42.28;26.08;;;;;;;2.91;57.86;101491.94;5031713;28;20053;-61
2023/01/29 09:09:35;;;;;;;42.88;26.50;;;;;;;2.95;57.42;101482.16;5032313;28;20060;-61
2023/01/29 09:12:02;;;;;;;43.17;26.25;;;;;;;3.02;57.41;101478.22;5049646;28;20064;-60
2023/01/29 09:14:29;;;;;;;43.70;24.95;;;;;;;3.07;58.02;101487.63;5055351;28;20068;-61
2023/01/29 09:16:58;;;;;;;43.47;26.58;;;;;;;3.09;56.82;101488.22;5053990;28;20052;-61
2023/01/29 09:19:25;;;;;;;45.85;26.77;;;;;;;2.98;56.79;101489.91;5055683;28;20049;-60
2023/01/29 09:21:52;;;;;;;39.83;25.38;;;;;;;2.95;57.18;101466.47;5054616;28;20064;-60
2023/01/29 09:24:20;;;;;;;43.95;25.75;;;;;;;2.91;57.69;101468.00;5055280;28;20433;-60
2023/01/29 09:26:47;;;;;;;44.10;27.48;;;;;;;2.88;57.34;101475.91;5054256;28;20049;-60
2023/01/29 09:29:14;;;;;;;43.10;25.92;;;;;;;2.93;57.77;101470.53;5053799;28;20056;-61
2023/01/29 09:31:42;;;;;;;41.05;24.80;;;;;;;2.98;58.12;101470.66;5054671;28;20053;-60
2023/01/29 09:34:10;;;;;;;43.17;26.65;;;;;;;3.12;57.70;101471.25;5054751;28;20057;-60
2023/01/29 09:36:38;;;;;;;46.00;26.45;;;;;;;3.17;56.22;101465.84;5055329;28;20405;-60
2023/01/29 09:39:05;;;;;;;46.08;28.15;;;;;;;3.18;57.19;101471.13;5054572;28;20053;-60
2023/01/29 09:41:48;;;;;;;39.15;25.20;;;;;;;3.31;56.91;101474.72;5047595;28;20486;-60
2023/01/29 09:44:23;;;;;;;41.72;26.27;;;;;;;3.47;55.81;101460.19;5037807;28;20056;-62
2023/01/29 09:47:00;;;;;;;42.70;26.48;;;;;;;3.72;55.73;101462.66;5054470;28;20053;-62
2023/01/29 09:49:34;;;;;;;42.75;26.55;;;;;;;3.79;55.66;101465.25;5055802;28;20052;-62
2023/01/29 09:52:07;;;;;;;44.45;25.13;;;;;;;3.64;56.29;101463.88;5042712;28;20045;-61
2023/01/29 09:54:46;;;;;;;42.15;27.10;;;;;;;3.85;55.92;101462.34;5035334;28;20058;-60
2023/01/29 09:57:20;;;;;;;42.45;26.38;;;;;;;3.59;56.21;101462.91;5047021;28;20152;-60
2023/01/29 09:59:47;;;;;;;43.45;25.65;;;;;;;3.60;55.71;101462.69;5054205;28;20041;-60
2023/01/29 10:02:41;;;;;;;42.67;25.50;;;;;;;3.53;56.59;101459.22;5053824;28;20048;-62
2023/01/29 10:05:23;;;;;;;37.83;23.70;;;;;;;3.53;56.08;101467.50;5052672;28;20052;-62
2023/01/29 10:08:22;;;;;;;42.55;27.05;;;;;;;3.40;55.97;101465.84;5050532;28;20485;-62
2023/01/29 10:10:52;;;;;;;43.75;27.30;;;;;;;3.26;56.03;101450.66;5050200;28;20383;-62
2023/01/29 10:13:29;;;;;;;42.58;26.35;;;;;;;3.30;55.99;101462.00;5052008;28;20485;-62
2023/01/29 10:16:19;;;;;;;41.95;26.42;;;;;;;3.10;57.32;101465.16;5033930;28;20060;-62
2023/01/29 10:19:05;;;;;;;40.15;25.40;;;;;;;3.37;56.58;101462.72;5033996;28;20077;-62
2023/01/29 10:21:52;;;;;;;41.83;25.83;;;;;;;3.22;57.54;101455.81;5049008;28;20049;-62
2023/01/29 10:24:28;;;;;;;41.80;25.10;;;;;;;3.38;56.89;101454.25;5054195;28;20057;-62
2023/01/29 10:26:56;;;;;;;41.22;24.90;;;;;;;3.70;56.86;101450.22;5053320;28;20063;-62
2023/01/29 10:29:25;;;;;;;43.28;25.35;;;;;;;3.77;55.56;101456.41;5052484;28;20051;-62
2023/01/29 10:31:56;;;;;;;42.73;25.97;;;;;;;4.03;56.12;101452.22;5054068;28;20049;-62
2023/01/29 10:34:31;;;;;;;42.58;26.15;;;;;;;4.12;55.79;101452.69;5053612;28;21010;-62
2023/01/29 10:37:02;;;;;;;40.78;25.58;;;;;;;3.89;55.56;101451.69;5052236;28;20064;-62
2023/01/29 10:39:30;;;;;;;46.13;27.70;;;;;;;4.16;54.67;101453.81;5053983;28;20505;-62
2023/01/29 10:42:19;;;;;;;39.72;25.77;;;;;;;3.86;55.11;101447.50;5048885;28;20057;-62
2023/01/29 10:44:58;;;;;;;40.20;26.33;;;;;;;4.27;55.39;101440.00;5050553;28;20057;-62
2023/01/29 10:47:45;;;;;;;40.63;26.38;;;;;;;4.31;54.14;101429.31;5043163;28;20045;-62
2023/01/29 10:50:25;;;;;;;43.10;25.40;;;;;;;4.51;54.31;101422.47;5049291;28;20474;-62
2023/01/29 10:53:12;;;;;;;39.50;25.52;;;;;;;4.83;53.68;101408.88;5054101;28;20482;-63
2023/01/29 10:55:51;;;;;;;39.90;24.98;;;;;;;5.57;52.10;101408.53;5053918;28;20057;-63
2023/01/29 10:58:30;;;;;;;36.72;24.48;;;;;;;6.00;50.64;101403.22;5050824;28;20055;-62
2023/01/29 11:00:58;;;;;;;38.22;24.40;;;;;;;6.16;49.57;101388.44;5053068;28;20045;-63
2023/01/29 11:03:27;;;;;;;36.72;25.25;;;;;;;6.80;48.66;101390.31;5053022;28;20053;-62
2023/01/29 11:06:02;;;;;;;34.75;23.17;;;;;;;6.93;47.41;101386.28;5053146;28;20358;-62
2023/01/29 11:08:37;;;;;;;33.85;23.50;;;;;;;7.01;46.80;101382.97;5051738;28;20482;-60
2023/01/29 11:11:09;;;;;;;37.28;25.38;;;;;;;6.95;48.58;101386.00;5053206;28;20060;-61
2023/01/29 11:13:48;;;;;;;32.03;23.52;;;;;;;6.75;47.89;101379.22;5050992;28;20124;-62
2023/01/29 11:16:16;;;;;;;32.10;22.88;;;;;;;6.39;48.28;101386.44;5053240;28;20057;-61
2023/01/29 11:18:55;;;;;;;34.40;23.25;;;;;;;6.36;48.84;101393.31;5051988;28;20060;-60
2023/01/29 11:21:24;;;;;;;34.03;23.00;;;;;;;6.05;49.68;101395.81;5052734;28;20053;-60
2023/01/29 11:24:06;;;;;;;35.83;24.00;;;;;;;6.13;49.42;101390.91;5052579;28;20398;-60
2023/01/29 11:26:38;;;;;;;32.42;22.95;;;;;;;5.92;50.11;101393.41;5052312;28;20559;-61
2023/01/29 11:29:05;;;;;;;34.30;24.27;;;;;;;5.77;50.32;101383.03;5051048;28;20057;-61
2023/01/29 11:31:38;;;;;;;34.33;22.45;;;;;;;5.63;50.55;101384.56;5053015;28;20402;-60
2023/01/29 11:34:13;;;;;;;32.65;22.48;;;;;;;5.52;50.29;101389.09;5052306;28;20071;-61
2023/01/29 11:36:40;;;;;;;32.95;21.88;;;;;;;5.36;51.16;101373.47;5052191;28;20049;-60
2023/01/29 11:39:17;;;;;;;32.08;21.92;;;;;;;5.18;51.12;101378.19;5052516;28;20049;-60
2023/01/29 11:41:48;;;;;;;34.00;23.40;;;;;;;5.11;51.11;101363.75;5051459;28;20041;-60
2023/01/29 11:44:26;;;;;;;34.15;23.17;;;;;;;4.88;52.22;101373.09;5051600;28;20064;-62
2023/01/29 11:46:55;;;;;;;34.45;22.73;;;;;;;4.79;51.86;101352.53;5051455;28;20481;-62
2023/01/29 11:49:31;;;;;;;32.60;21.63;;;;;;;4.88;52.00;101345.50;5052380;28;20500;-62
2023/01/29 11:52:01;;;;;;;32.20;21.52;;;;;;;4.85;51.94;101344.06;5053010;28;20524;-60
2023/01/29 11:54:35;;;;;;;34.47;23.35;;;;;;;5.20;51.80;101331.81;5050156;28;20056;-60
2023/01/29 11:57:03;;;;;;;33.10;21.90;;;;;;;5.24;51.34;101338.50;5049127;28;20056;-62
2023/01/29 11:59:41;;;;;;;33.25;22.65;;;;;;;5.09;51.50;101335.56;5052007;28;20053;-62